createdAt,value
2019-06-08T00:01:52.594Z,16.10
2019-06-08T00:04:42.293Z,16.10
2019-06-08T00:07:31.445Z,16.00
2019-06-08T00:10:25.227Z,15.90
2019-06-08T00:13:13.134Z,15.90
2019-06-08T00:16:02.687Z,15.90
2019-06-08T00:18:52.056Z,15.90
2019-06-08T00:21:40.968Z,15.80
2019-06-08T00:24:30.466Z,15.80
2019-06-08T00:27:20.192Z,15.80
2019-06-08T00:30:11.569Z,15.80
2019-06-08T00:33:00.183Z,15.70
2019-06-08T00:35:49.377Z,15.70
2019-06-08T00:38:38.021Z,15.70
2019-06-08T00:41:26.792Z,15.70
2019-06-08T00:44:17.161Z,15.60
2019-06-08T00:47:06.765Z,15.60
2019-06-08T00:49:56.455Z,15.60
2019-06-08T00:52:45.775Z,15.60
2019-06-08T00:55:34.787Z,15.60
2019-06-08T00:58:24.250Z,15.50
2019-06-08T01:01:14.041Z,15.60
2019-06-08T01:04:03.354Z,15.50
2019-06-08T01:06:52.675Z,15.50
2019-06-08T01:09:41.382Z,15.50
2019-06-08T01:12:30.810Z,15.50
2019-06-08T01:15:27.691Z,15.50
2019-06-08T01:18:11.532Z,15.50
2019-06-08T01:21:00.221Z,15.50
2019-06-08T01:23:49.555Z,15.50
2019-06-08T01:26:39.002Z,15.50
2019-06-08T01:29:28.401Z,15.50
2019-06-08T01:32:17.637Z,15.50
2019-06-08T01:35:07.537Z,15.40
2019-06-08T01:37:57.399Z,15.40
2019-06-08T01:40:46.471Z,15.40
2019-06-08T01:43:35.744Z,15.40
2019-06-08T01:46:25.885Z,15.50
2019-06-08T01:49:14.922Z,15.50
2019-06-08T01:52:03.556Z,15.40
2019-06-08T01:54:52.036Z,15.40
2019-06-08T01:57:41.168Z,15.40
2019-06-08T02:00:38.747Z,15.40
2019-06-08T02:03:22.099Z,15.40
2019-06-08T02:06:11.327Z,15.40
2019-06-08T02:09:00.518Z,15.30
2019-06-08T02:11:49.866Z,15.30
2019-06-08T02:14:39.043Z,15.30
2019-06-08T02:17:29.370Z,15.30
2019-06-08T02:20:20.282Z,15.30
2019-06-08T02:23:09.922Z,15.20
2019-06-08T02:25:58.930Z,15.20
2019-06-08T02:28:47.847Z,15.20
2019-06-08T02:31:37.738Z,15.20
2019-06-08T02:34:28.339Z,15.20
2019-06-08T02:37:18.313Z,15.20
2019-06-08T02:40:08.121Z,15.20
2019-06-08T02:42:57.465Z,15.20
2019-06-08T02:45:46.527Z,15.20
2019-06-08T02:48:46.913Z,15.20
2019-06-08T02:51:26.366Z,15.20
2019-06-08T02:54:15.259Z,15.20
2019-06-08T02:57:06.577Z,15.20
2019-06-08T02:59:58.734Z,15.20
2019-06-08T03:02:50.130Z,15.10
2019-06-08T03:05:41.273Z,15.10
2019-06-08T03:08:34.354Z,15.10
2019-06-08T03:11:23.560Z,15.10
2019-06-08T03:14:13.863Z,15.00
2019-06-08T03:17:03.221Z,15.00
2019-06-08T03:19:52.204Z,15.00
2019-06-08T03:22:43.913Z,15.00
2019-06-08T03:25:35.165Z,15.00
2019-06-08T03:28:23.188Z,15.00
2019-06-08T03:31:12.561Z,15.10
2019-06-08T03:34:01.768Z,15.10
2019-06-08T03:36:55.926Z,15.10
2019-06-08T03:39:42.712Z,15.10
2019-06-08T03:42:32.609Z,15.10
2019-06-08T03:45:21.609Z,15.20
2019-06-08T03:48:11.042Z,15.20
2019-06-08T03:51:00.113Z,15.20
2019-06-08T03:53:49.273Z,15.30
2019-06-08T03:56:40.146Z,15.40
2019-06-08T03:59:29.566Z,15.40
2019-06-08T04:02:18.692Z,15.50
2019-06-08T04:05:08.557Z,15.50
2019-06-08T04:07:57.673Z,15.60
2019-06-08T04:10:47.100Z,15.60
2019-06-08T04:13:37.709Z,15.60
2019-06-08T04:16:27.224Z,15.50
2019-06-08T04:19:16.921Z,15.60
2019-06-08T04:22:05.619Z,15.60
2019-06-08T04:24:55.130Z,15.60
2019-06-08T04:27:44.762Z,15.50
2019-06-08T04:30:34.898Z,15.60
2019-06-08T04:33:23.973Z,15.50
2019-06-08T04:36:13.429Z,15.50
2019-06-08T04:39:03.642Z,15.40
2019-06-08T04:41:52.431Z,15.40
2019-06-08T04:44:42.580Z,15.50
2019-06-08T04:47:31.770Z,15.50
2019-06-08T04:50:23.760Z,16.00
2019-06-08T04:53:11.685Z,16.90
2019-06-08T04:56:01.200Z,18.50
2019-06-08T04:58:51.412Z,19.30
2019-06-08T05:01:40.949Z,19.40
2019-06-08T05:04:30.234Z,19.60
2019-06-08T05:07:19.549Z,20.20
2019-06-08T05:10:09.793Z,21.40
2019-06-08T05:12:59.036Z,22.70
2019-06-08T05:15:50.251Z,21.60
2019-06-08T05:18:39.358Z,19.70
2019-06-08T05:21:28.208Z,20.40
2019-06-08T05:24:17.273Z,22.60
2019-06-08T05:27:06.487Z,24.30
2019-06-08T05:29:55.929Z,23.90
2019-06-08T05:32:45.620Z,22.60
2019-06-08T05:35:35.777Z,21.60
2019-06-08T05:38:24.699Z,19.90
2019-06-08T05:41:14.120Z,18.80
2019-06-08T05:44:03.076Z,18.10
2019-06-08T05:46:51.735Z,17.60
2019-06-08T05:49:41.621Z,17.20
2019-06-08T05:52:31.496Z,17.20
2019-06-08T05:55:20.159Z,17.20
2019-06-08T05:58:09.181Z,17.40
2019-06-08T06:00:58.701Z,17.80
2019-06-08T06:03:48.731Z,17.80
2019-06-08T06:06:38.673Z,17.50
2019-06-08T06:09:27.887Z,17.40
2019-06-08T06:12:17.210Z,17.40
2019-06-08T06:15:09.268Z,17.60
2019-06-08T06:17:58.334Z,17.80
2019-06-08T06:20:47.432Z,18.20
2019-06-08T06:23:36.802Z,19.40
2019-06-08T06:26:26.009Z,19.10
2019-06-08T06:29:15.173Z,18.80
2019-06-08T06:32:04.260Z,18.50
2019-06-08T06:34:53.714Z,18.60
2019-06-08T06:37:42.196Z,18.70
2019-06-08T06:40:32.974Z,18.70
2019-06-08T06:43:22.772Z,18.60
2019-06-08T06:46:11.923Z,18.40
2019-06-08T06:49:01.038Z,18.20
2019-06-08T06:51:50.585Z,18.10
2019-06-08T06:54:40.036Z,19.00
2019-06-08T06:57:29.722Z,19.90
2019-06-08T07:00:31.360Z,20.70
2019-06-08T07:03:20.448Z,21.30
2019-06-08T07:06:09.707Z,21.90
2019-06-08T07:08:58.593Z,22.30
2019-06-08T07:11:48.836Z,22.20
2019-06-08T07:14:37.547Z,22.40
2019-06-08T07:17:27.103Z,22.50
2019-06-08T07:20:16.150Z,22.90
2019-06-08T07:23:05.634Z,22.90
2019-06-08T07:25:54.809Z,23.10
2019-06-08T07:28:43.864Z,23.00
2019-06-08T07:31:33.136Z,22.70
2019-06-08T07:34:22.109Z,22.70
2019-06-08T07:37:11.546Z,22.70
2019-06-08T07:40:00.524Z,22.30
2019-06-08T07:42:50.803Z,22.40
2019-06-08T07:45:40.047Z,22.00
2019-06-08T07:48:29.413Z,21.90
2019-06-08T07:51:18.433Z,21.40
2019-06-08T07:54:07.601Z,21.40
2019-06-08T07:56:57.143Z,20.50
2019-06-08T07:59:47.601Z,20.30
2019-06-08T08:02:37.733Z,19.90
2019-06-08T08:05:26.585Z,19.90
2019-06-08T08:08:17.399Z,20.10
2019-06-08T08:11:07.003Z,19.90
2019-06-08T08:13:57.333Z,19.90
2019-06-08T08:16:46.573Z,20.60
2019-06-08T08:19:37.144Z,20.40
2019-06-08T08:22:29.528Z,20.20
2019-06-08T08:25:18.666Z,19.90
2019-06-08T08:28:08.201Z,19.50
2019-06-08T08:30:59.787Z,19.00
2019-06-08T08:33:49.717Z,18.80
2019-06-08T08:36:38.493Z,18.90
2019-06-08T08:39:28.043Z,18.80
2019-06-08T08:42:18.067Z,18.70
2019-06-08T08:45:09.683Z,18.50
2019-06-08T08:48:14.483Z,18.20
2019-06-08T08:50:50.803Z,18.10
2019-06-08T08:53:41.103Z,18.20
2019-06-08T08:56:29.716Z,18.20
2019-06-08T08:59:19.133Z,18.50
2019-06-08T09:02:11.214Z,18.90
2019-06-08T09:05:03.267Z,19.00
2019-06-08T09:07:52.231Z,18.90
2019-06-08T09:10:41.750Z,18.90
2019-06-08T09:13:31.293Z,19.00
2019-06-08T09:16:20.473Z,18.90
2019-06-08T09:19:09.854Z,18.60
2019-06-08T09:22:01.214Z,18.40
2019-06-08T09:24:49.826Z,18.70
2019-06-08T09:27:38.686Z,18.90
2019-06-08T09:30:27.837Z,19.00
2019-06-08T09:33:18.823Z,18.90
2019-06-08T09:36:08.575Z,18.90
2019-06-08T09:39:00.676Z,18.60
2019-06-08T09:41:48.448Z,18.50
2019-06-08T09:44:37.919Z,18.60
2019-06-08T09:47:27.994Z,18.40
2019-06-08T09:50:18.703Z,18.40
2019-06-08T09:53:23.048Z,18.50
2019-06-08T09:56:02.342Z,18.60
2019-06-08T09:58:51.380Z,18.70
2019-06-08T10:01:39.242Z,18.80
2019-06-08T10:04:29.135Z,18.70
2019-06-08T10:07:19.436Z,18.40
2019-06-08T10:10:09.989Z,18.40
2019-06-08T10:13:01.718Z,18.20
2019-06-08T10:15:51.609Z,17.90
2019-06-08T10:18:41.409Z,18.10
2019-06-08T10:21:30.786Z,18.70
2019-06-08T10:24:20.085Z,18.70
2019-06-08T10:27:11.776Z,18.90
2019-06-08T10:30:02.847Z,18.90
2019-06-08T10:32:50.823Z,19.10
2019-06-08T10:35:40.922Z,18.90
2019-06-08T10:38:29.929Z,18.50
2019-06-08T10:41:21.852Z,18.40
2019-06-08T10:44:13.805Z,18.30
2019-06-08T10:47:02.970Z,18.40
2019-06-08T10:49:51.598Z,18.30
2019-06-08T10:52:40.991Z,18.40
2019-06-08T10:55:30.418Z,18.30
2019-06-08T10:58:21.178Z,18.10
2019-06-08T11:01:12.431Z,17.90
2019-06-08T11:04:01.950Z,17.90
2019-06-08T11:06:51.690Z,17.70
2019-06-08T11:09:40.574Z,17.70
2019-06-08T11:12:29.824Z,17.90
2019-06-08T11:15:19.505Z,18.10
2019-06-08T11:18:11.847Z,18.40
2019-06-08T11:21:01.957Z,18.40
2019-06-08T11:24:05.498Z,18.60
2019-06-08T11:26:41.053Z,18.70
2019-06-08T11:29:30.789Z,18.50
2019-06-08T11:32:20.545Z,18.50
2019-06-08T11:35:12.480Z,18.40
2019-06-08T11:38:02.269Z,18.70
2019-06-08T11:40:51.936Z,18.90
2019-06-08T11:43:41.003Z,19.20
2019-06-08T11:46:30.481Z,19.20
2019-06-08T11:49:19.728Z,19.40
2019-06-08T11:52:09.492Z,19.60
2019-06-08T11:55:00.699Z,19.60
2019-06-08T11:57:51.480Z,19.20
2019-06-08T12:01:02.815Z,19.30
2019-06-08T12:03:51.471Z,19.30
2019-06-08T12:06:40.857Z,19.30
2019-06-08T12:09:29.897Z,19.30
2019-06-08T12:12:21.372Z,19.30
2019-06-08T12:15:13.007Z,19.50
2019-06-08T12:18:03.345Z,19.40
2019-06-08T12:20:52.454Z,19.40
2019-06-08T12:23:41.902Z,19.10
2019-06-08T12:26:30.731Z,19.00
2019-06-08T12:29:19.656Z,19.20
2019-06-08T12:32:10.791Z,19.20
2019-06-08T12:35:00.276Z,19.30
2019-06-08T12:37:51.616Z,19.30
2019-06-08T12:40:41.159Z,19.40
2019-06-08T12:43:30.893Z,19.60
2019-06-08T12:46:21.558Z,19.70
2019-06-08T12:49:12.878Z,20.00
2019-06-08T12:52:02.380Z,20.00
2019-06-08T12:55:02.561Z,20.00
2019-06-08T12:57:42.358Z,19.80
2019-06-08T13:00:31.939Z,19.50
2019-06-08T13:03:20.812Z,19.50
2019-06-08T13:06:11.223Z,19.70
2019-06-08T13:09:00.562Z,19.50
2019-06-08T13:11:50.768Z,19.70
2019-06-08T13:14:40.620Z,19.80
2019-06-08T13:17:30.115Z,19.80
2019-06-08T13:20:22.352Z,19.80
2019-06-08T13:23:13.063Z,19.90
2019-06-08T13:26:02.062Z,19.90
2019-06-08T13:28:51.391Z,19.80
2019-06-08T13:31:40.569Z,19.80
2019-06-08T13:34:30.133Z,19.90
2019-06-08T13:37:20.516Z,19.80
2019-06-08T13:40:13.205Z,19.50
2019-06-08T13:43:02.639Z,19.30
2019-06-08T13:45:51.511Z,19.00
2019-06-08T13:48:41.185Z,18.80
2019-06-08T13:51:30.425Z,18.70
2019-06-08T13:54:21.439Z,18.60
2019-06-08T13:57:10.834Z,18.50
2019-06-08T14:00:00.587Z,18.40
2019-06-08T14:02:50.012Z,18.40
2019-06-08T14:05:39.181Z,18.30
2019-06-08T14:08:32.841Z,18.30
2019-06-08T14:11:20.622Z,18.30
2019-06-08T14:14:09.741Z,18.30
2019-06-08T14:16:59.054Z,18.40
2019-06-08T14:19:51.628Z,18.50
2019-06-08T14:22:40.073Z,18.50
2019-06-08T14:25:34.150Z,18.70
2019-06-08T14:28:21.121Z,18.80
2019-06-08T14:31:11.050Z,18.70
2019-06-08T14:34:00.561Z,18.70
2019-06-08T14:36:49.494Z,18.80
2019-06-08T14:39:38.992Z,18.80
2019-06-08T14:42:29.858Z,18.80
2019-06-08T14:45:19.645Z,18.80
2019-06-08T14:48:10.539Z,19.00
2019-06-08T14:50:59.763Z,19.00
2019-06-08T14:53:48.686Z,19.20
2019-06-08T14:56:37.888Z,19.70
2019-06-08T14:59:29.957Z,20.00
2019-06-08T15:02:19.317Z,20.30
2019-06-08T15:05:09.285Z,20.50
2019-06-08T15:08:01.019Z,20.30
2019-06-08T15:10:49.797Z,20.00
2019-06-08T15:13:40.467Z,19.90
2019-06-08T15:16:31.111Z,19.70
2019-06-08T15:19:20.300Z,19.70
2019-06-08T15:22:11.277Z,19.80
2019-06-08T15:25:01.564Z,19.70
2019-06-08T15:27:51.080Z,19.60
2019-06-08T15:30:40.493Z,19.80
2019-06-08T15:33:32.065Z,19.70
2019-06-08T15:36:22.084Z,19.60
2019-06-08T15:39:12.036Z,19.40
2019-06-08T15:42:01.104Z,19.60
2019-06-08T15:44:50.328Z,19.50
2019-06-08T15:47:40.814Z,19.50
2019-06-08T15:50:30.756Z,19.50
2019-06-08T15:53:19.762Z,19.50
2019-06-08T15:56:08.633Z,19.60
2019-06-08T15:58:58.824Z,19.60
2019-06-08T16:01:48.192Z,19.60
2019-06-08T16:04:37.252Z,19.30
2019-06-08T16:07:29.411Z,19.10
2019-06-08T16:10:17.466Z,19.00
2019-06-08T16:13:07.007Z,18.90
2019-06-08T16:15:56.280Z,18.90
2019-06-08T16:18:45.313Z,18.90
2019-06-08T16:21:36.090Z,19.10
2019-06-08T16:24:25.812Z,19.20
2019-06-08T16:27:15.408Z,19.30
2019-06-08T16:30:09.600Z,19.30
2019-06-08T16:32:58.150Z,19.30
2019-06-08T16:35:47.261Z,19.10
2019-06-08T16:38:38.272Z,18.90
2019-06-08T16:41:29.799Z,18.80
2019-06-08T16:44:19.166Z,18.80
2019-06-08T16:47:08.636Z,18.60
2019-06-08T16:49:57.465Z,18.50
2019-06-08T16:52:47.023Z,18.50
2019-06-08T16:55:36.227Z,18.30
2019-06-08T16:58:25.873Z,18.30
2019-06-08T17:01:15.341Z,18.60
2019-06-08T17:04:04.520Z,18.70
2019-06-08T17:06:53.990Z,18.80
2019-06-08T17:09:43.452Z,18.80
2019-06-08T17:12:32.870Z,18.60
2019-06-08T17:15:22.597Z,18.30
2019-06-08T17:18:11.899Z,18.40
2019-06-08T17:21:00.837Z,18.30
2019-06-08T17:23:50.451Z,18.20
2019-06-08T17:26:39.235Z,18.00
2019-06-08T17:29:28.344Z,17.90
2019-06-08T17:32:17.282Z,17.80
2019-06-08T17:35:07.524Z,17.80
2019-06-08T17:37:56.667Z,17.60
2019-06-08T17:40:45.930Z,17.60
2019-06-08T17:43:38.174Z,17.70
2019-06-08T17:46:27.701Z,17.70
2019-06-08T17:49:17.228Z,17.70
2019-06-08T17:52:06.594Z,17.80
2019-06-08T17:54:55.418Z,17.80
2019-06-08T17:57:53.206Z,17.90
2019-06-08T18:00:35.405Z,17.90
2019-06-08T18:03:24.491Z,17.80
2019-06-08T18:06:13.377Z,17.70
2019-06-08T18:09:02.439Z,17.70
2019-06-08T18:11:51.456Z,17.60
2019-06-08T18:14:43.848Z,17.60
2019-06-08T18:17:34.396Z,17.60
2019-06-08T18:20:23.681Z,17.50
2019-06-08T18:23:12.970Z,17.50
2019-06-08T18:26:01.793Z,17.50
2019-06-08T18:28:51.092Z,17.50
2019-06-08T18:31:42.562Z,17.20
2019-06-08T18:34:31.173Z,17.00
2019-06-08T18:37:21.053Z,17.00
2019-06-08T18:40:12.139Z,16.90
2019-06-08T18:43:01.257Z,16.70
2019-06-08T18:45:50.636Z,16.70
2019-06-08T18:48:42.099Z,16.60
2019-06-08T18:51:30.673Z,16.60
2019-06-08T18:54:20.257Z,16.60
2019-06-08T18:57:11.471Z,16.60
2019-06-08T19:00:00.228Z,16.50
2019-06-08T19:02:54.304Z,16.50
2019-06-08T19:05:42.558Z,16.50
2019-06-08T19:08:30.308Z,16.50
2019-06-08T19:11:19.421Z,16.40
2019-06-08T19:14:09.861Z,16.40
2019-06-08T19:16:59.021Z,16.30
2019-06-08T19:19:52.267Z,16.30
2019-06-08T19:22:43.726Z,16.10
2019-06-08T19:25:30.440Z,16.00
2019-06-08T19:28:34.892Z,15.90
2019-06-08T19:31:10.593Z,15.80
2019-06-08T19:34:00.374Z,15.70
2019-06-08T19:36:54.021Z,15.50
2019-06-08T19:39:43.105Z,15.40
2019-06-08T19:42:39.134Z,15.40
2019-06-08T19:45:20.553Z,15.30
2019-06-08T19:48:09.556Z,15.20
2019-06-08T19:50:58.758Z,15.10
2019-06-08T19:53:52.858Z,15.10
2019-06-08T19:56:40.663Z,15.10
2019-06-08T19:59:29.944Z,15.10
2019-06-08T20:02:18.868Z,15.10
2019-06-08T20:05:10.444Z,15.00
2019-06-08T20:07:59.357Z,14.90
2019-06-08T20:10:49.630Z,15.00
2019-06-08T20:13:41.209Z,15.00
2019-06-08T20:16:30.910Z,15.00
2019-06-08T20:19:20.164Z,14.90
2019-06-08T20:22:09.981Z,14.80
2019-06-08T20:24:59.880Z,14.80
2019-06-08T20:27:51.556Z,14.70
2019-06-08T20:30:40.427Z,14.60
2019-06-08T20:33:29.469Z,14.50
2019-06-08T20:36:19.061Z,14.40
2019-06-08T20:39:09.207Z,14.40
2019-06-08T20:41:58.761Z,14.50
2019-06-08T20:44:50.019Z,14.60
2019-06-08T20:47:39.339Z,14.70
2019-06-08T20:50:28.380Z,14.80
2019-06-08T20:53:17.830Z,14.90
2019-06-08T20:56:08.008Z,15.00
2019-06-08T20:58:57.515Z,14.90
2019-06-08T21:01:48.844Z,14.90
2019-06-08T21:04:38.443Z,14.90
2019-06-08T21:07:28.206Z,14.90
2019-06-08T21:10:17.499Z,14.80
2019-06-08T21:13:07.440Z,14.80
2019-06-08T21:16:00.270Z,14.70
2019-06-08T21:18:48.746Z,14.70
2019-06-08T21:21:37.868Z,14.60
2019-06-08T21:24:28.088Z,14.60
2019-06-08T21:27:17.987Z,14.60
2019-06-08T21:30:20.320Z,14.60
2019-06-08T21:33:00.936Z,14.80
2019-06-08T21:35:52.855Z,14.80
2019-06-08T21:38:40.368Z,14.70
2019-06-08T21:41:29.351Z,14.70
2019-06-08T21:44:18.542Z,14.70
2019-06-08T21:47:08.082Z,14.70
2019-06-08T21:49:59.244Z,14.70
2019-06-08T21:52:50.205Z,14.70
2019-06-08T21:55:38.339Z,14.70
2019-06-08T21:58:27.520Z,14.70
2019-06-08T22:01:17.845Z,14.60
2019-06-08T22:04:07.859Z,14.60
2019-06-08T22:06:59.712Z,14.60
2019-06-08T22:09:49.969Z,14.60
2019-06-08T22:12:40.460Z,14.50
2019-06-08T22:15:29.918Z,14.50
2019-06-08T22:18:19.182Z,14.50
2019-06-08T22:21:08.427Z,14.40
2019-06-08T22:23:59.647Z,14.40
2019-06-08T22:26:48.212Z,14.40
2019-06-08T22:29:38.314Z,14.30
2019-06-08T22:32:27.758Z,14.30
2019-06-08T22:35:17.164Z,14.30
2019-06-08T22:38:08.142Z,14.40
2019-06-08T22:40:57.672Z,14.40
2019-06-08T22:43:48.167Z,14.30
2019-06-08T22:46:37.806Z,14.30
2019-06-08T22:49:27.954Z,14.30
2019-06-08T22:52:18.614Z,14.20
2019-06-08T22:55:10.919Z,14.30
2019-06-08T22:58:01.850Z,14.20
2019-06-08T23:00:52.859Z,14.20
2019-06-08T23:03:41.621Z,14.20
2019-06-08T23:06:30.177Z,14.10
2019-06-08T23:09:19.029Z,14.10
2019-06-08T23:12:09.558Z,14.10
2019-06-08T23:15:00.608Z,14.00
2019-06-08T23:17:49.703Z,14.00
2019-06-08T23:20:38.998Z,14.00
2019-06-08T23:23:28.273Z,13.90
2019-06-08T23:26:18.286Z,14.00
2019-06-08T23:29:09.672Z,14.00
2019-06-08T23:32:01.092Z,13.90
2019-06-08T23:34:50.451Z,13.90
2019-06-08T23:37:40.012Z,13.90
2019-06-08T23:40:29.499Z,13.80
2019-06-08T23:43:18.862Z,13.80
2019-06-08T23:46:08.172Z,13.80
2019-06-08T23:49:00.670Z,13.70
2019-06-08T23:51:47.860Z,13.80
2019-06-08T23:54:37.050Z,13.70
2019-06-08T23:57:27.263Z,13.60
